createdAt,value
2018-06-04T00:00:58.590Z,0.00
2018-06-04T00:01:58.031Z,0.00
2018-06-04T00:02:58.034Z,0.00
2018-06-04T00:03:58.035Z,0.00
2018-06-04T00:04:58.037Z,0.00
2018-06-04T00:05:58.042Z,0.00
2018-06-04T00:06:58.040Z,0.00
2018-06-04T00:07:58.045Z,0.00
2018-06-04T00:08:58.042Z,0.00
2018-06-04T00:09:58.044Z,0.00
2018-06-04T00:10:58.048Z,0.00
2018-06-04T00:11:58.049Z,0.00
2018-06-04T00:12:58.054Z,0.00
2018-06-04T00:13:58.052Z,0.00
2018-06-04T00:14:58.065Z,0.00
2018-06-04T00:15:58.068Z,0.00
2018-06-04T00:16:58.057Z,0.00
2018-06-04T00:17:58.063Z,0.00
2018-06-04T00:18:58.063Z,0.00
2018-06-04T00:19:58.063Z,0.00
2018-06-04T00:20:58.067Z,0.00
2018-06-04T00:21:58.091Z,0.00
2018-06-04T00:22:58.068Z,0.00
2018-06-04T00:23:58.070Z,0.00
2018-06-04T00:24:58.095Z,0.00
2018-06-04T00:25:58.594Z,0.00
2018-06-04T00:26:58.097Z,0.00
2018-06-04T00:27:58.080Z,0.00
2018-06-04T00:28:58.079Z,0.00
2018-06-04T00:29:58.081Z,0.00
2018-06-04T00:30:58.087Z,0.00
2018-06-04T00:31:58.597Z,0.00
2018-06-04T00:32:58.084Z,0.00
2018-06-04T00:33:58.091Z,0.00
2018-06-04T00:34:58.599Z,0.00
2018-06-04T00:35:58.090Z,0.00
2018-06-04T00:36:58.091Z,0.00
2018-06-04T00:37:58.096Z,0.00
2018-06-04T00:38:58.098Z,0.00
2018-06-04T00:39:58.095Z,0.00
2018-06-04T00:40:58.097Z,0.00
2018-06-04T00:41:58.106Z,0.00
2018-06-04T00:42:58.105Z,0.00
2018-06-04T00:43:58.125Z,0.00
2018-06-04T00:44:58.104Z,0.00
2018-06-04T00:45:58.106Z,0.00
2018-06-04T00:46:58.115Z,0.00
2018-06-04T00:47:58.117Z,0.00
2018-06-04T00:48:58.134Z,0.00
2018-06-04T00:49:58.112Z,0.00
2018-06-04T00:50:58.116Z,0.00
2018-06-04T00:51:58.112Z,0.00
2018-06-04T00:52:58.117Z,0.00
2018-06-04T00:53:58.145Z,0.00
2018-06-04T00:54:58.118Z,0.00
2018-06-04T00:55:58.124Z,0.00
2018-06-04T00:56:58.120Z,0.00
2018-06-04T00:57:58.123Z,0.00
2018-06-04T00:58:58.125Z,0.00
2018-06-04T00:59:58.128Z,0.00
2018-06-04T01:00:58.130Z,0.00
2018-06-04T01:01:58.129Z,0.00
2018-06-04T01:02:58.132Z,0.00
2018-06-04T01:03:58.130Z,0.00
2018-06-04T01:04:58.133Z,0.00
2018-06-04T01:05:58.134Z,0.00
2018-06-04T01:06:58.161Z,0.00
2018-06-04T01:07:58.141Z,0.00
2018-06-04T01:08:58.138Z,0.00
2018-06-04T01:09:58.146Z,0.00
2018-06-04T01:10:58.142Z,0.00
2018-06-04T01:11:58.146Z,0.00
2018-06-04T01:12:58.143Z,0.00
2018-06-04T01:13:58.146Z,0.00
2018-06-04T01:14:58.154Z,0.00
2018-06-04T01:15:58.173Z,0.00
2018-06-04T01:16:58.150Z,0.00
2018-06-04T01:17:58.151Z,0.00
2018-06-04T01:18:58.159Z,0.00
2018-06-04T01:19:58.156Z,0.00
2018-06-04T01:20:58.156Z,0.00
2018-06-04T01:21:58.162Z,0.00
2018-06-04T01:22:58.160Z,0.00
2018-06-04T01:23:58.168Z,0.00
2018-06-04T01:24:58.187Z,0.00
2018-06-04T01:25:58.196Z,0.00
2018-06-04T01:26:58.189Z,0.00
2018-06-04T01:27:58.167Z,0.00
2018-06-04T01:28:58.187Z,0.00
2018-06-04T01:29:58.170Z,0.00
2018-06-04T01:30:58.173Z,0.00
2018-06-04T01:31:58.173Z,0.00
2018-06-04T01:32:58.175Z,0.00
2018-06-04T01:33:58.172Z,0.00
2018-06-04T01:34:58.173Z,0.00
2018-06-04T01:35:58.177Z,0.00
2018-06-04T01:36:58.177Z,0.00
2018-06-04T01:37:58.178Z,0.00
2018-06-04T01:38:58.182Z,0.00
2018-06-04T01:39:58.182Z,0.00
2018-06-04T01:40:58.186Z,0.00
2018-06-04T01:41:58.185Z,0.00
2018-06-04T01:42:58.205Z,0.00
2018-06-04T01:43:58.202Z,0.00
2018-06-04T01:44:58.188Z,0.00
2018-06-04T01:45:58.189Z,0.00
2018-06-04T01:46:58.189Z,0.00
2018-06-04T01:47:58.193Z,0.00
2018-06-04T01:48:58.206Z,0.00
2018-06-04T01:49:58.194Z,0.00
2018-06-04T01:50:58.196Z,0.00
2018-06-04T01:51:58.199Z,0.00
2018-06-04T01:52:58.200Z,0.00
2018-06-04T01:53:58.204Z,0.00
2018-06-04T01:54:58.203Z,0.00
2018-06-04T01:55:58.212Z,0.00
2018-06-04T01:56:58.228Z,0.00
2018-06-04T01:57:58.203Z,0.00
2018-06-04T01:58:58.212Z,0.00
2018-06-04T01:59:58.223Z,0.00
2018-06-04T02:00:58.209Z,0.00
2018-06-04T02:01:58.237Z,0.00
2018-06-04T02:02:58.209Z,0.00
2018-06-04T02:03:58.212Z,0.00
2018-06-04T02:04:58.216Z,0.00
2018-06-04T02:05:58.241Z,0.00
2018-06-04T02:06:58.215Z,0.00
2018-06-04T02:07:58.217Z,0.00
2018-06-04T02:08:58.218Z,0.00
2018-06-04T02:09:58.220Z,0.00
2018-06-04T02:10:58.241Z,0.00
2018-06-04T02:11:58.221Z,0.00
2018-06-04T02:12:58.222Z,0.00
2018-06-04T02:13:58.225Z,0.00
2018-06-04T02:14:58.227Z,0.00
2018-06-04T02:15:58.232Z,0.00
2018-06-04T02:16:58.226Z,0.00
2018-06-04T02:17:58.229Z,0.00
2018-06-04T02:18:58.244Z,0.00
2018-06-04T02:19:58.259Z,0.00
2018-06-04T02:20:58.246Z,0.00
2018-06-04T02:21:58.231Z,0.00
2018-06-04T02:22:58.253Z,0.00
2018-06-04T02:23:58.240Z,0.00
2018-06-04T02:24:58.234Z,0.00
2018-06-04T02:25:58.235Z,0.00
2018-06-04T02:26:58.263Z,0.00
2018-06-04T02:27:58.241Z,0.00
2018-06-04T02:28:58.290Z,0.00
2018-06-04T02:29:58.271Z,0.00
2018-06-04T02:30:58.243Z,0.00
2018-06-04T02:31:58.242Z,0.00
2018-06-04T02:32:58.245Z,0.00
2018-06-04T02:33:58.246Z,0.00
2018-06-04T02:34:58.250Z,0.00
2018-06-04T02:35:58.259Z,0.00
2018-06-04T02:36:58.272Z,4.00
2018-06-04T02:37:58.250Z,4.00
2018-06-04T02:38:58.250Z,4.00
2018-06-04T02:39:58.254Z,0.00
2018-06-04T02:40:58.253Z,0.00
2018-06-04T02:41:58.258Z,0.00
2018-06-04T02:42:58.254Z,4.00
2018-06-04T02:43:58.256Z,4.00
2018-06-04T02:44:58.255Z,0.00
2018-06-04T02:45:58.257Z,4.00
2018-06-04T02:46:58.259Z,4.00
2018-06-04T02:47:58.264Z,4.00
2018-06-04T02:48:58.259Z,4.00
2018-06-04T02:49:58.271Z,8.00
2018-06-04T02:50:58.277Z,4.00
2018-06-04T02:51:58.268Z,8.00
2018-06-04T02:52:58.272Z,4.00
2018-06-04T02:53:58.277Z,8.00
2018-06-04T02:54:58.279Z,8.00
2018-06-04T02:55:58.272Z,8.00
2018-06-04T02:56:58.271Z,12.00
2018-06-04T02:57:58.279Z,12.00
2018-06-04T02:58:58.320Z,12.00
2018-06-04T02:59:58.275Z,12.00
2018-06-04T03:00:58.275Z,16.00
2018-06-04T03:01:58.278Z,16.00
2018-06-04T03:02:58.284Z,16.00
2018-06-04T03:03:58.277Z,16.00
2018-06-04T03:04:58.281Z,20.00
2018-06-04T03:05:58.364Z,20.00
2018-06-04T03:06:58.285Z,24.00
2018-06-04T03:07:58.304Z,24.00
2018-06-04T03:08:58.286Z,28.00
2018-06-04T03:09:58.284Z,28.00
2018-06-04T03:10:58.289Z,28.00
2018-06-04T03:11:58.288Z,32.00
2018-06-04T03:12:58.288Z,32.00
2018-06-04T03:13:58.288Z,36.00
2018-06-04T03:14:58.298Z,40.00
2018-06-04T03:15:58.292Z,44.00
2018-06-04T03:16:58.301Z,48.00
2018-06-04T03:17:58.295Z,52.00
2018-06-04T03:18:58.301Z,56.00
2018-06-04T03:19:58.323Z,60.00
2018-06-04T03:20:58.296Z,64.00
2018-06-04T03:21:58.298Z,68.00
2018-06-04T03:22:58.300Z,72.00
2018-06-04T03:23:58.305Z,76.00
2018-06-04T03:24:58.316Z,84.00
2018-06-04T03:25:58.302Z,88.00
2018-06-04T03:26:58.331Z,96.00
2018-06-04T03:27:58.330Z,100.00
2018-06-04T03:28:58.320Z,104.00
2018-06-04T03:29:58.310Z,108.00
2018-06-04T03:30:58.319Z,120.00
2018-06-04T03:31:58.325Z,120.00
2018-06-04T03:32:58.337Z,132.00
2018-06-04T03:33:58.314Z,136.00
2018-06-04T03:34:58.342Z,144.00
2018-06-04T03:35:58.317Z,152.00
2018-06-04T03:36:58.317Z,160.00
2018-06-04T03:37:58.319Z,168.00
2018-06-04T03:38:58.321Z,176.00
2018-06-04T03:39:58.319Z,180.00
2018-06-04T03:40:58.326Z,184.00
2018-06-04T03:41:58.324Z,192.00
2018-06-04T03:42:58.355Z,204.00
2018-06-04T03:43:58.340Z,216.00
2018-06-04T03:44:58.331Z,224.00
2018-06-04T03:45:58.327Z,232.00
2018-06-04T03:46:58.330Z,244.00
2018-06-04T03:47:58.335Z,252.00
2018-06-04T03:48:58.333Z,256.00
2018-06-04T03:49:58.337Z,268.00
2018-06-04T03:50:58.339Z,276.00
2018-06-04T03:51:58.376Z,284.00
2018-06-04T03:52:58.339Z,296.00
2018-06-04T03:53:58.341Z,304.00
2018-06-04T03:54:58.368Z,312.00
2018-06-04T03:55:58.361Z,320.00
2018-06-04T03:56:58.347Z,332.00
2018-06-04T03:57:58.371Z,344.00
2018-06-04T03:58:58.344Z,352.00
2018-06-04T03:59:58.349Z,372.00
2018-06-04T04:00:58.346Z,392.00
2018-06-04T04:01:58.374Z,408.00
2018-06-04T04:02:58.415Z,412.00
2018-06-04T04:03:58.355Z,424.00
2018-06-04T04:04:58.351Z,432.00
2018-06-04T04:05:58.357Z,440.00
2018-06-04T04:06:58.363Z,444.00
2018-06-04T04:07:58.360Z,460.00
2018-06-04T04:08:58.385Z,488.00
2018-06-04T04:09:58.387Z,496.00
2018-06-04T04:10:58.387Z,504.00
2018-06-04T04:11:58.411Z,552.00
2018-06-04T04:12:58.369Z,572.00
2018-06-04T04:13:58.366Z,556.00
2018-06-04T04:14:58.386Z,552.00
2018-06-04T04:15:58.368Z,560.00
2018-06-04T04:16:58.366Z,572.00
2018-06-04T04:17:58.371Z,576.00
2018-06-04T04:18:58.378Z,580.00
2018-06-04T04:19:58.379Z,600.00
2018-06-04T04:20:58.374Z,600.00
2018-06-04T04:21:58.377Z,592.00
2018-06-04T04:22:58.381Z,584.00
2018-06-04T04:23:58.383Z,596.00
2018-06-04T04:24:58.383Z,620.00
2018-06-04T04:25:58.387Z,660.00
2018-06-04T04:26:58.386Z,704.00
2018-06-04T04:27:58.422Z,740.00
2018-06-04T04:28:58.389Z,752.00
2018-06-04T04:29:58.392Z,756.00
2018-06-04T04:30:58.407Z,752.00
2018-06-04T04:31:58.395Z,764.00
2018-06-04T04:32:58.404Z,776.00
2018-06-04T04:33:58.643Z,780.00
2018-06-04T04:34:58.401Z,768.00
2018-06-04T04:35:58.399Z,748.00
2018-06-04T04:36:58.631Z,728.00
2018-06-04T04:37:58.403Z,724.00
2018-06-04T04:38:58.426Z,716.00
2018-06-04T04:39:58.419Z,720.00
2018-06-04T04:40:58.410Z,732.00
2018-06-04T04:41:58.413Z,752.00
2018-06-04T04:42:58.415Z,760.00
2018-06-04T04:43:58.630Z,764.00
2018-06-04T04:44:58.422Z,768.00
2018-06-04T04:45:58.440Z,748.00
2018-06-04T04:46:58.430Z,732.00
2018-06-04T04:47:58.447Z,728.00
2018-06-04T04:48:58.425Z,712.00
2018-06-04T04:49:58.451Z,720.00
2018-06-04T04:50:58.431Z,744.00
2018-06-04T04:51:58.432Z,760.00
2018-06-04T04:52:58.432Z,776.00
2018-06-04T04:53:58.435Z,812.00
2018-06-04T04:54:58.438Z,896.00
2018-06-04T04:55:58.438Z,952.00
2018-06-04T04:56:58.446Z,1020.00
2018-06-04T04:57:58.444Z,1060.00
2018-06-04T04:58:58.447Z,1088.00
2018-06-04T04:59:58.465Z,1080.00
2018-06-04T05:00:58.470Z,1112.00
2018-06-04T05:01:58.455Z,1140.00
2018-06-04T05:02:58.456Z,1164.00
2018-06-04T05:03:58.474Z,1140.00
2018-06-04T05:04:58.461Z,1208.00
2018-06-04T05:05:58.463Z,1244.00
2018-06-04T05:06:58.470Z,1268.00
2018-06-04T05:07:58.474Z,1300.00
2018-06-04T05:08:58.491Z,1320.00
2018-06-04T05:09:58.472Z,1264.00
2018-06-04T05:10:58.496Z,1248.00
2018-06-04T05:11:58.479Z,1392.00
2018-06-04T05:12:58.483Z,1396.00
2018-06-04T05:13:58.485Z,1624.00
2018-06-04T05:14:58.505Z,1636.00
2018-06-04T05:15:58.500Z,1692.00
2018-06-04T05:16:58.497Z,1732.00
2018-06-04T05:17:58.493Z,1752.00
2018-06-04T05:18:58.496Z,1716.00
2018-06-04T05:20:01.189Z,1736.00
2018-06-04T05:20:58.502Z,1744.00
2018-06-04T05:21:58.508Z,1756.00
2018-06-04T05:22:58.548Z,1756.00
2018-06-04T05:24:00.225Z,1756.00
2018-06-04T05:24:58.520Z,1748.00
2018-06-04T05:25:58.525Z,1756.00
2018-06-04T05:26:58.529Z,1764.00
2018-06-04T05:27:58.551Z,1768.00
2018-06-04T05:28:58.529Z,1800.00
2018-06-04T05:29:58.531Z,1624.00
2018-06-04T05:30:58.544Z,1624.00
2018-06-04T05:31:58.538Z,1812.00
2018-06-04T05:32:58.563Z,1892.00
2018-06-04T05:34:00.199Z,2008.00
2018-06-04T05:34:58.575Z,1940.00
2018-06-04T05:35:58.579Z,1744.00
2018-06-04T05:36:58.560Z,1388.00
2018-06-04T05:37:58.585Z,1856.00
2018-06-04T05:38:58.568Z,2008.00
2018-06-04T05:40:06.154Z,1932.00
2018-06-04T05:41:51.628Z,2320.00
2018-06-04T05:42:51.500Z,2380.00
2018-06-04T05:44:44.399Z,2448.00
2018-06-04T05:45:44.451Z,2064.00
2018-06-04T05:47:37.307Z,2340.00
2018-06-04T05:48:37.347Z,2388.00
2018-06-04T05:50:31.193Z,2456.00
2018-06-04T05:51:31.233Z,2328.00
2018-06-04T05:53:24.543Z,2580.00
2018-06-04T05:54:24.404Z,2520.00
2018-06-04T05:56:17.359Z,2556.00
2018-06-04T05:57:17.253Z,2320.00
2018-06-04T05:59:10.220Z,1836.00
2018-06-04T06:00:10.173Z,1880.00
2018-06-04T06:02:03.059Z,2672.00
2018-06-04T06:03:03.067Z,2708.00
2018-06-04T06:04:55.960Z,2652.00
2018-06-04T06:05:55.891Z,2612.00
2018-06-04T06:07:48.835Z,2588.00
2018-06-04T06:08:48.773Z,2632.00
2018-06-04T06:10:41.995Z,2648.00
2018-06-04T06:11:41.933Z,2656.00
2018-06-04T06:13:34.894Z,2748.00
2018-06-04T06:14:34.808Z,2788.00
2018-06-04T06:16:28.288Z,2836.00
2018-06-04T06:17:28.261Z,2988.00
2018-06-04T06:19:21.211Z,3712.00
2018-06-04T06:20:21.156Z,4096.00
2018-06-04T06:22:14.014Z,4248.00
2018-06-04T06:23:14.027Z,4292.00
2018-06-04T06:24:13.984Z,4308.00
2018-06-04T06:25:14.157Z,4380.00
2018-06-04T06:26:13.979Z,4412.00
2018-06-04T06:27:13.980Z,4468.00
2018-06-04T06:28:13.986Z,4456.00
2018-06-04T06:29:13.994Z,4372.00
2018-06-04T06:30:14.010Z,4360.00
2018-06-04T06:31:14.003Z,4372.00
2018-06-04T06:32:14.007Z,4304.00
2018-06-04T06:33:14.013Z,4220.00
2018-06-04T06:34:14.020Z,4240.00
2018-06-04T06:35:14.029Z,4132.00
2018-06-04T06:36:14.032Z,4048.00
2018-06-04T06:37:14.038Z,3576.00
2018-06-04T06:38:14.064Z,4272.00
2018-06-04T06:39:14.048Z,4236.00
2018-06-04T06:40:14.058Z,4320.00
2018-06-04T06:41:14.102Z,4332.00
2018-06-04T06:42:14.069Z,4296.00
2018-06-04T06:43:14.096Z,4288.00
2018-06-04T06:44:14.086Z,4300.00
2018-06-04T06:45:14.112Z,4340.00
2018-06-04T06:46:14.097Z,4340.00
2018-06-04T06:47:14.107Z,4308.00
2018-06-04T06:48:14.133Z,4336.00
2018-06-04T06:49:14.144Z,4356.00
2018-06-04T06:50:14.132Z,4432.00
2018-06-04T06:51:14.136Z,4404.00
2018-06-04T06:52:14.150Z,4312.00
2018-06-04T06:53:14.150Z,4244.00
2018-06-04T06:54:14.157Z,4276.00
2018-06-04T06:55:14.160Z,4448.00
2018-06-04T06:56:14.196Z,4452.00
2018-06-04T06:57:14.176Z,4552.00
2018-06-04T06:58:14.186Z,4600.00
2018-06-04T06:59:14.206Z,4616.00
2018-06-04T07:00:14.201Z,4632.00
2018-06-04T07:01:14.217Z,4744.00
2018-06-04T07:02:14.216Z,4788.00
2018-06-04T07:03:14.223Z,4800.00
2018-06-04T07:04:14.234Z,4964.00
2018-06-04T07:05:14.241Z,5124.00
2018-06-04T07:06:14.249Z,5236.00
2018-06-04T07:07:14.283Z,5252.00
2018-06-04T07:08:14.265Z,5292.00
2018-06-04T07:09:14.275Z,5332.00
2018-06-04T07:10:14.282Z,5420.00
2018-06-04T07:11:14.293Z,5512.00
2018-06-04T07:12:14.302Z,5616.00
2018-06-04T07:13:14.310Z,5704.00
2018-06-04T07:14:14.351Z,5784.00
2018-06-04T07:15:14.328Z,5848.00
2018-06-04T07:16:14.337Z,5876.00
2018-06-04T07:17:14.349Z,5884.00
2018-06-04T07:18:14.358Z,5912.00
2018-06-04T07:19:14.364Z,5948.00
2018-06-04T07:20:14.378Z,5996.00
2018-06-04T07:21:14.387Z,6136.00
2018-06-04T07:22:14.403Z,6220.00
2018-06-04T07:23:14.404Z,6288.00
2018-06-04T07:24:14.418Z,6296.00
2018-06-04T07:25:14.426Z,6344.00
2018-06-04T07:26:14.465Z,6420.00
2018-06-04T07:27:14.446Z,6468.00
2018-06-04T07:28:14.455Z,6492.00
2018-06-04T07:29:14.470Z,6560.00
2018-06-04T07:30:14.479Z,6636.00
2018-06-04T07:31:14.490Z,6660.00
2018-06-04T07:32:14.497Z,6636.00
2018-06-04T07:33:14.511Z,6660.00
2018-06-04T07:34:14.520Z,6704.00
2018-06-04T07:35:14.532Z,6720.00
2018-06-04T07:36:14.550Z,6772.00
2018-06-04T07:37:14.552Z,6772.00
2018-06-04T07:38:14.567Z,6812.00
2018-06-04T07:39:14.586Z,6848.00
2018-06-04T07:40:14.620Z,6884.00
2018-06-04T07:41:14.638Z,6984.00
2018-06-04T07:42:14.606Z,7072.00
2018-06-04T07:43:14.619Z,6968.00
2018-06-04T07:44:14.632Z,7004.00
2018-06-04T07:45:14.641Z,7240.00
2018-06-04T07:46:14.655Z,7440.00
2018-06-04T07:47:14.688Z,7520.00
2018-06-04T07:48:14.677Z,7700.00
2018-06-04T07:49:14.687Z,7760.00
2018-06-04T07:50:14.702Z,7712.00
2018-06-04T07:51:14.715Z,7668.00
2018-06-04T07:52:14.722Z,7712.00
2018-06-04T07:53:14.736Z,7696.00
2018-06-04T07:54:14.747Z,7824.00
2018-06-04T07:55:14.760Z,7864.00
2018-06-04T07:56:14.800Z,7804.00
2018-06-04T07:57:14.817Z,7904.00
2018-06-04T07:58:14.798Z,7924.00
2018-06-04T07:59:14.841Z,8060.00
2018-06-04T08:00:14.843Z,8200.00
2018-06-04T08:01:14.836Z,8212.00
2018-06-04T08:02:14.910Z,8484.00
2018-06-04T08:03:14.859Z,8496.00
2018-06-04T08:04:14.875Z,8496.00
2018-06-04T08:05:14.890Z,8564.00
2018-06-04T08:06:14.951Z,8752.00
2018-06-04T08:07:14.910Z,8892.00
2018-06-04T08:08:14.944Z,8964.00
2018-06-04T08:09:14.936Z,9036.00
2018-06-04T08:10:15.011Z,8916.00
2018-06-04T08:11:14.963Z,8964.00
2018-06-04T08:12:14.975Z,9024.00
2018-06-04T08:13:15.003Z,8692.00
2018-06-04T08:14:15.000Z,8836.00
2018-06-04T08:15:15.040Z,8840.00
2018-06-04T08:16:15.052Z,9356.00
2018-06-04T08:17:15.054Z,9264.00
2018-06-04T08:18:15.055Z,8984.00
2018-06-04T08:19:15.098Z,9332.00
2018-06-04T08:20:15.099Z,9256.00
2018-06-04T08:21:15.108Z,9808.00
2018-06-04T08:22:15.141Z,9856.00
2018-06-04T08:23:15.121Z,9956.00
2018-06-04T08:24:15.138Z,7212.00
2018-06-04T08:25:15.149Z,5012.00
2018-06-04T08:26:15.164Z,8284.00
2018-06-04T08:27:15.175Z,5620.00
2018-06-04T08:28:15.215Z,5072.00
2018-06-04T08:29:15.266Z,9688.00
2018-06-04T08:30:15.217Z,9936.00
2018-06-04T08:31:15.229Z,9852.00
2018-06-04T08:32:15.266Z,9932.00
2018-06-04T08:33:15.259Z,10168.00
2018-06-04T08:34:15.269Z,10244.00
2018-06-04T08:35:15.317Z,10264.00
2018-06-04T08:36:15.300Z,10576.00
2018-06-04T08:37:15.338Z,10196.00
2018-06-04T08:38:15.324Z,9956.00
2018-06-04T08:39:15.337Z,9632.00
2018-06-04T08:40:15.446Z,8104.00
2018-06-04T08:41:15.371Z,10616.00
2018-06-04T08:42:15.382Z,10640.00
2018-06-04T08:43:15.394Z,11172.00
2018-06-04T08:44:15.433Z,11204.00
2018-06-04T08:45:15.423Z,10412.00
2018-06-04T08:46:15.444Z,5732.00
2018-06-04T08:47:15.468Z,11352.00
2018-06-04T08:48:15.496Z,11580.00
2018-06-04T08:49:15.491Z,11556.00
2018-06-04T08:50:15.492Z,11468.00
2018-06-04T08:51:15.505Z,11012.00
2018-06-04T08:52:15.520Z,10300.00
2018-06-04T08:53:15.534Z,10128.00
2018-06-04T08:54:15.575Z,10284.00
2018-06-04T08:55:15.565Z,9972.00
2018-06-04T08:56:15.602Z,9944.00
2018-06-04T08:57:15.590Z,10008.00
2018-06-04T08:58:15.604Z,9848.00
2018-06-04T08:59:15.617Z,9636.00
2018-06-04T09:00:15.633Z,9300.00
2018-06-04T09:01:15.666Z,8956.00
2018-06-04T09:02:15.664Z,8440.00
2018-06-04T09:03:15.700Z,8060.00
2018-06-04T09:04:15.684Z,6820.00
2018-06-04T09:05:15.735Z,4876.00
2018-06-04T09:06:15.713Z,6112.00
2018-06-04T09:07:15.755Z,6516.00
2018-06-04T09:08:15.742Z,6128.00
2018-06-04T09:09:15.748Z,5920.00
2018-06-04T09:10:15.760Z,5628.00
2018-06-04T09:11:15.773Z,5380.00
2018-06-04T09:12:15.790Z,5352.00
2018-06-04T09:13:15.801Z,5348.00
2018-06-04T09:14:15.813Z,5300.00
2018-06-04T09:15:15.848Z,5172.00
2018-06-04T09:16:15.836Z,5024.00
2018-06-04T09:17:15.872Z,4968.00
2018-06-04T09:18:15.858Z,4984.00
2018-06-04T09:19:15.874Z,4928.00
2018-06-04T09:20:15.917Z,5000.00
2018-06-04T09:21:15.913Z,5108.00
2018-06-04T09:22:15.909Z,5176.00
2018-06-04T09:23:15.918Z,5264.00
2018-06-04T09:24:15.927Z,5104.00
2018-06-04T09:25:15.939Z,5316.00
2018-06-04T09:26:15.953Z,4352.00
2018-06-04T09:27:15.962Z,4048.00
2018-06-04T09:28:16.000Z,4048.00
2018-06-04T09:29:15.987Z,4104.00
2018-06-04T09:30:16.017Z,4152.00
2018-06-04T09:31:16.011Z,4204.00
2018-06-04T09:32:16.034Z,4200.00
2018-06-04T09:33:16.059Z,4060.00
2018-06-04T09:34:16.042Z,4120.00
2018-06-04T09:35:16.074Z,4452.00
2018-06-04T09:36:16.081Z,5060.00
2018-06-04T09:37:16.071Z,5612.00
2018-06-04T09:38:16.081Z,5092.00
2018-06-04T09:39:16.111Z,4260.00
2018-06-04T09:40:16.101Z,4332.00
2018-06-04T09:41:16.127Z,4152.00
2018-06-04T09:42:16.122Z,4832.00
2018-06-04T09:43:16.135Z,4116.00
2018-06-04T09:44:16.145Z,3960.00
2018-06-04T09:45:16.152Z,3892.00
2018-06-04T09:46:16.187Z,3988.00
2018-06-04T09:47:16.201Z,4052.00
2018-06-04T09:48:16.183Z,4472.00
2018-06-04T09:49:16.191Z,5000.00
2018-06-04T09:50:16.226Z,5068.00
2018-06-04T09:51:16.229Z,5164.00
2018-06-04T09:52:16.221Z,4064.00
2018-06-04T09:53:16.255Z,4092.00
2018-06-04T09:54:16.245Z,4164.00
2018-06-04T09:55:16.251Z,4436.00
2018-06-04T09:56:16.270Z,3856.00
2018-06-04T09:57:16.270Z,3948.00
2018-06-04T09:58:16.281Z,3784.00
2018-06-04T09:59:16.296Z,3768.00
2018-06-04T10:00:16.300Z,3884.00
2018-06-04T10:01:16.310Z,3860.00
2018-06-04T10:02:16.324Z,3716.00
2018-06-04T10:03:16.361Z,3588.00
2018-06-04T10:04:16.360Z,3456.00
2018-06-04T10:05:16.348Z,3388.00
2018-06-04T10:06:16.357Z,3528.00
2018-06-04T10:07:16.377Z,3676.00
2018-06-04T10:08:16.373Z,3636.00
2018-06-04T10:09:16.383Z,3552.00
2018-06-04T10:10:16.394Z,3436.00
2018-06-04T10:11:16.406Z,3356.00
2018-06-04T10:12:16.413Z,3380.00
2018-06-04T10:13:16.425Z,3432.00
2018-06-04T10:14:16.448Z,3424.00
2018-06-04T10:15:16.443Z,3440.00
2018-06-04T10:16:16.451Z,3488.00
2018-06-04T10:17:16.481Z,3524.00
2018-06-04T10:18:16.472Z,3520.00
2018-06-04T10:19:16.485Z,3464.00
2018-06-04T10:20:16.490Z,3536.00
2018-06-04T10:21:16.498Z,3700.00
2018-06-04T10:22:16.511Z,3720.00
2018-06-04T10:23:16.518Z,3660.00
2018-06-04T10:24:16.522Z,3572.00
2018-06-04T10:25:16.530Z,3456.00
2018-06-04T10:26:16.543Z,3284.00
2018-06-04T10:27:16.552Z,3192.00
2018-06-04T10:28:16.555Z,3168.00
2018-06-04T10:29:16.568Z,3200.00
2018-06-04T10:30:16.603Z,3240.00
2018-06-04T10:31:16.591Z,3256.00
2018-06-04T10:32:16.601Z,3280.00
2018-06-04T10:33:16.607Z,3192.00
2018-06-04T10:34:16.620Z,3040.00
2018-06-04T10:35:16.656Z,2876.00
2018-06-04T10:36:16.640Z,2688.00
2018-06-04T10:37:16.636Z,2596.00
2018-06-04T10:38:16.651Z,2652.00
2018-06-04T10:39:16.658Z,2852.00
2018-06-04T10:40:16.661Z,3212.00
2018-06-04T10:41:16.668Z,3384.00
2018-06-04T10:42:16.677Z,3432.00
2018-06-04T10:43:16.705Z,3428.00
2018-06-04T10:44:16.697Z,3892.00
2018-06-04T10:45:16.701Z,4200.00
2018-06-04T10:46:16.710Z,4224.00
2018-06-04T10:47:16.719Z,3636.00
2018-06-04T10:48:16.759Z,3044.00
2018-06-04T10:49:16.734Z,3012.00
2018-06-04T10:50:16.743Z,3028.00
2018-06-04T10:51:16.750Z,3104.00
2018-06-04T10:52:16.764Z,3188.00
2018-06-04T10:53:16.767Z,3364.00
2018-06-04T10:54:16.775Z,3516.00
2018-06-04T10:55:16.783Z,4460.00
2018-06-04T10:56:16.795Z,4316.00
2018-06-04T10:57:16.829Z,4160.00
2018-06-04T10:58:16.814Z,3996.00
2018-06-04T10:59:16.823Z,3304.00
2018-06-04T11:00:16.827Z,3660.00
2018-06-04T11:01:16.835Z,4164.00
2018-06-04T11:02:16.847Z,4224.00
2018-06-04T11:03:16.853Z,4312.00
2018-06-04T11:04:16.882Z,4304.00
2018-06-04T11:05:16.882Z,4356.00
2018-06-04T11:06:16.877Z,4408.00
2018-06-04T11:07:16.890Z,4464.00
2018-06-04T11:08:16.896Z,4280.00
2018-06-04T11:09:16.900Z,3520.00
2018-06-04T11:10:16.913Z,3632.00
2018-06-04T11:11:16.919Z,3932.00
2018-06-04T11:12:16.951Z,4580.00
2018-06-04T11:13:16.937Z,4324.00
2018-06-04T11:14:16.954Z,4424.00
2018-06-04T11:15:16.954Z,4360.00
2018-06-04T11:16:16.964Z,4516.00
2018-06-04T11:17:16.970Z,4516.00
2018-06-04T11:18:16.984Z,4428.00
2018-06-04T11:19:17.071Z,4300.00
2018-06-04T11:20:16.998Z,4468.00
2018-06-04T11:21:17.009Z,4336.00
2018-06-04T11:22:17.020Z,4448.00
2018-06-04T11:23:17.058Z,4372.00
2018-06-04T11:24:17.038Z,4352.00
2018-06-04T11:25:17.043Z,4344.00
2018-06-04T11:26:17.079Z,4352.00
2018-06-04T11:27:17.059Z,4348.00
2018-06-04T11:28:17.102Z,4268.00
2018-06-04T11:29:17.089Z,4268.00
2018-06-04T11:30:17.089Z,4288.00
2018-06-04T11:31:17.098Z,4316.00
2018-06-04T11:32:17.125Z,4312.00
2018-06-04T11:33:17.115Z,4404.00
2018-06-04T11:34:17.126Z,4480.00
2018-06-04T11:35:17.135Z,4488.00
2018-06-04T11:36:17.147Z,4432.00
2018-06-04T11:37:17.167Z,4380.00
2018-06-04T11:38:17.183Z,4272.00
2018-06-04T11:39:17.200Z,4096.00
2018-06-04T11:40:17.204Z,4008.00
2018-06-04T11:41:17.201Z,3984.00
2018-06-04T11:42:17.206Z,3992.00
2018-06-04T11:43:17.212Z,4016.00
2018-06-04T11:44:17.221Z,4052.00
2018-06-04T11:45:17.227Z,4080.00
2018-06-04T11:46:17.241Z,4148.00
2018-06-04T11:47:17.247Z,4196.00
2018-06-04T11:48:17.257Z,3448.00
2018-06-04T11:49:17.269Z,3248.00
2018-06-04T11:50:17.280Z,3224.00
2018-06-04T11:51:17.291Z,3188.00
2018-06-04T11:52:18.135Z,3116.00
2018-06-04T11:53:17.306Z,3012.00
2018-06-04T11:54:17.317Z,2916.00
2018-06-04T11:55:17.326Z,2824.00
2018-06-04T11:56:17.343Z,2812.00
2018-06-04T11:57:17.344Z,3032.00
2018-06-04T11:58:17.354Z,2852.00
2018-06-04T11:59:17.373Z,2768.00
2018-06-04T12:00:17.370Z,3088.00
2018-06-04T12:01:17.381Z,2648.00
2018-06-04T12:02:17.391Z,2884.00
2018-06-04T12:03:17.400Z,3444.00
2018-06-04T12:04:17.413Z,3376.00
2018-06-04T12:05:17.415Z,3316.00
2018-06-04T12:06:17.427Z,3320.00
2018-06-04T12:07:17.432Z,3332.00
2018-06-04T12:08:17.445Z,3348.00
2018-06-04T12:09:17.485Z,3344.00
2018-06-04T12:10:17.462Z,3128.00
2018-06-04T12:11:17.475Z,2880.00
2018-06-04T12:12:17.478Z,2692.00
2018-06-04T12:13:17.489Z,2644.00
2018-06-04T12:14:17.498Z,2396.00
2018-06-04T12:15:17.506Z,2264.00
2018-06-04T12:16:17.532Z,2216.00
2018-06-04T12:17:17.523Z,2196.00
2018-06-04T12:18:17.532Z,2244.00
2018-06-04T12:19:17.555Z,2380.00
2018-06-04T12:20:17.551Z,2408.00
2018-06-04T12:21:17.555Z,2424.00
2018-06-04T12:22:17.569Z,2344.00
2018-06-04T12:23:17.577Z,2332.00
2018-06-04T12:24:17.603Z,2304.00
2018-06-04T12:25:17.602Z,2276.00
2018-06-04T12:26:17.614Z,2216.00
2018-06-04T12:27:17.610Z,2180.00
2018-06-04T12:28:17.683Z,2240.00
2018-06-04T12:29:17.627Z,2308.00
2018-06-04T12:30:17.636Z,2376.00
2018-06-04T12:31:17.644Z,2428.00
2018-06-04T12:32:17.654Z,2476.00
2018-06-04T12:33:19.661Z,2488.00
2018-06-04T12:34:17.695Z,2624.00
2018-06-04T12:35:17.678Z,3384.00
2018-06-04T12:36:17.712Z,3248.00
2018-06-04T12:37:25.031Z,3280.00
2018-06-04T12:39:24.829Z,3204.00
2018-06-04T12:42:06.617Z,3144.00